EGHI

Details ICAO EGHI (SOU)
Name Southampton
Region United Kingdom
Timezone Europe/London (UTC+0.0)
Plans Departing 877
Arriving 601
Stats Elevation 41 ft / 12 m (AMSL)
Location 50.950300° -1.356790°
Runways 1
Magnetic Variation 0.639° W
Sunrise 2019-02-21 07:08:48 UTC / 2019-02-21 07:08:48 Local
Sunset 2019-02-21 17:32:20 UTC / 2019-02-21 17:32:20 Local
Advertisement - Login to hide

Runways

ID Width Length Bearing (true/mag) Surface Threshold Overrun Markings Lighting
02 121 ft / 37 m 5,651 ft / 1,722 m 19.36° / 19.99° ASPHALT 239 ft / 73 m 66 ft / 20 m UK-PREC-APP CENTERLINE EDGE THRESHOLD MALS
20 121 ft / 37 m 5,651 ft / 1,722 m 199.36° / 200.00° ASPHALT 151 ft / 46 m 0 ft / 0 m UK-PREC-APP CENTERLINE EDGE THRESHOLD MALS

Approach Navaids

Runway Type Ident Frequency Range Bearing (true/mag) Slope Elevation
20 DME ISN 110.75 MHz 18 nm / 33 km - - 54 ft / 16 m (AMSL)
20 LOC-ILS ISN 110.75 MHz 18 nm / 33 km 199.35° / 199.99° - 41 ft / 12 m (AMSL)
20 GS ISN 110.75 MHz 18 nm / 33 km 199.35° / 199.99° 3.10° 41 ft / 12 m (AMSL)

Map

Weather


0- 5 10 15 20 25 30 35+ Temperature / °C

Clouds and Precipitation
Forecast for 2019-02-21 12:00 UTC. Updated 6 hours ago

Ground ~20,000 ft ~40,000 ft Winds

METAR

EGHI 211520Z 19006KT 140V210 9999 BKN017 11/08 Q1028

TAF

Not found

Frequencies

Tower 118.20 MHz Southampton Tower
Tower 118.35 MHz Southampton Info
Warning: Do not use this data for real-world aviation or navigation. No guarantee of current accuracy is given.